sensor_id;sensor_type;location;lat;lon;timestamp;P1;durP1;ratioP1;P2;durP2;ratioP2
5702;SDS011;2876;51.738;10.050;2023-09-08T00:00:43;6.33;;;4.77;;
5702;SDS011;2876;51.738;10.050;2023-09-08T00:06:45;6.33;;;5.60;;
5702;SDS011;2876;51.738;10.050;2023-09-08T00:12:47;7.40;;;5.90;;
5702;SDS011;2876;51.738;10.050;2023-09-08T00:18:49;9.70;;;5.97;;
5702;SDS011;2876;51.738;10.050;2023-09-08T00:24:51;6.40;;;5.80;;
5702;SDS011;2876;51.738;10.050;2023-09-08T00:30:53;7.47;;;5.40;;
5702;SDS011;2876;51.738;10.050;2023-09-08T00:36:55;6.90;;;5.77;;
5702;SDS011;2876;51.738;10.050;2023-09-08T00:42:57;12.03;;;5.80;;
5702;SDS011;2876;51.738;10.050;2023-09-08T00:48:59;9.13;;;5.50;;
5702;SDS011;2876;51.738;10.050;2023-09-08T00:55:02;8.33;;;5.90;;
5702;SDS011;2876;51.738;10.050;2023-09-08T01:01:04;9.10;;;6.00;;
5702;SDS011;2876;51.738;10.050;2023-09-08T01:07:08;7.90;;;6.37;;
5702;SDS011;2876;51.738;10.050;2023-09-08T01:13:11;7.83;;;5.97;;
5702;SDS011;2876;51.738;10.050;2023-09-08T01:19:13;8.33;;;6.23;;
5702;SDS011;2876;51.738;10.050;2023-09-08T01:25:18;11.90;;;6.17;;
5702;SDS011;2876;51.738;10.050;2023-09-08T01:31:24;8.37;;;6.47;;
5702;SDS011;2876;51.738;10.050;2023-09-08T01:37:27;8.50;;;6.17;;
5702;SDS011;2876;51.738;10.050;2023-09-08T01:43:29;13.97;;;6.90;;
5702;SDS011;2876;51.738;10.050;2023-09-08T01:49:31;8.43;;;6.70;;
5702;SDS011;2876;51.738;10.050;2023-09-08T01:55:33;10.07;;;6.83;;
5702;SDS011;2876;51.738;10.050;2023-09-08T02:01:35;12.33;;;6.03;;
5702;SDS011;2876;51.738;10.050;2023-09-08T02:07:38;7.40;;;6.50;;
5702;SDS011;2876;51.738;10.050;2023-09-08T02:13:41;8.83;;;6.37;;
5702;SDS011;2876;51.738;10.050;2023-09-08T02:19:43;9.73;;;6.30;;
5702;SDS011;2876;51.738;10.050;2023-09-08T02:25:46;9.00;;;6.27;;
5702;SDS011;2876;51.738;10.050;2023-09-08T02:31:48;6.87;;;6.17;;
5702;SDS011;2876;51.738;10.050;2023-09-08T02:37:50;9.03;;;6.43;;
5702;SDS011;2876;51.738;10.050;2023-09-08T02:43:52;6.70;;;6.00;;
5702;SDS011;2876;51.738;10.050;2023-09-08T02:49:54;9.17;;;6.67;;
5702;SDS011;2876;51.738;10.050;2023-09-08T02:55:57;9.37;;;7.43;;
5702;SDS011;2876;51.738;10.050;2023-09-08T03:01:59;8.10;;;7.30;;
5702;SDS011;2876;51.738;10.050;2023-09-08T03:08:02;8.33;;;7.33;;
5702;SDS011;2876;51.738;10.050;2023-09-08T03:14:04;10.63;;;8.40;;
5702;SDS011;2876;51.738;10.050;2023-09-08T03:20:07;8.37;;;7.53;;
5702;SDS011;2876;51.738;10.050;2023-09-08T03:26:12;9.57;;;8.00;;
5702;SDS011;2876;51.738;10.050;2023-09-08T03:32:14;13.37;;;8.90;;
5702;SDS011;2876;51.738;10.050;2023-09-08T03:38:16;9.77;;;8.70;;
5702;SDS011;2876;51.738;10.050;2023-09-08T03:44:19;13.20;;;7.97;;
5702;SDS011;2876;51.738;10.050;2023-09-08T03:50:21;11.37;;;8.63;;
5702;SDS011;2876;51.738;10.050;2023-09-08T03:56:23;11.90;;;9.00;;
5702;SDS011;2876;51.738;10.050;2023-09-08T04:02:25;10.90;;;7.90;;
5702;SDS011;2876;51.738;10.050;2023-09-08T04:08:27;10.83;;;8.83;;
5702;SDS011;2876;51.738;10.050;2023-09-08T04:14:29;10.33;;;7.50;;
5702;SDS011;2876;51.738;10.050;2023-09-08T04:20:31;9.70;;;8.70;;
5702;SDS011;2876;51.738;10.050;2023-09-08T04:26:34;11.33;;;8.00;;
5702;SDS011;2876;51.738;10.050;2023-09-08T04:32:37;9.80;;;8.57;;
5702;SDS011;2876;51.738;10.050;2023-09-08T04:38:39;10.30;;;7.73;;
5702;SDS011;2876;51.738;10.050;2023-09-08T04:44:42;9.60;;;8.03;;
5702;SDS011;2876;51.738;10.050;2023-09-08T04:50:47;10.43;;;8.63;;
5702;SDS011;2876;51.738;10.050;2023-09-08T04:56:49;9.80;;;8.20;;
5702;SDS011;2876;51.738;10.050;2023-09-08T05:02:52;9.70;;;7.80;;
5702;SDS011;2876;51.738;10.050;2023-09-08T05:08:54;12.70;;;8.40;;
5702;SDS011;2876;51.738;10.050;2023-09-08T05:14:56;11.20;;;8.60;;
5702;SDS011;2876;51.738;10.050;2023-09-08T05:21:01;9.10;;;8.07;;
5702;SDS011;2876;51.738;10.050;2023-09-08T05:27:03;9.33;;;8.33;;
5702;SDS011;2876;51.738;10.050;2023-09-08T05:33:05;9.50;;;7.53;;
5702;SDS011;2876;51.738;10.050;2023-09-08T05:39:08;10.10;;;8.73;;
5702;SDS011;2876;51.738;10.050;2023-09-08T05:45:11;13.40;;;8.10;;
5702;SDS011;2876;51.738;10.050;2023-09-08T05:51:13;9.40;;;8.40;;
5702;SDS011;2876;51.738;10.050;2023-09-08T05:57:16;9.00;;;8.00;;
5702;SDS011;2876;51.738;10.050;2023-09-08T06:03:18;15.33;;;7.20;;
5702;SDS011;2876;51.738;10.050;2023-09-08T06:09:21;10.73;;;8.50;;
5702;SDS011;2876;51.738;10.050;2023-09-08T06:15:23;8.67;;;7.70;;
5702;SDS011;2876;51.738;10.050;2023-09-08T06:21:25;13.97;;;8.27;;
5702;SDS011;2876;51.738;10.050;2023-09-08T06:27:27;13.27;;;8.73;;
5702;SDS011;2876;51.738;10.050;2023-09-08T06:33:29;10.43;;;7.43;;
5702;SDS011;2876;51.738;10.050;2023-09-08T06:39:31;7.63;;;6.93;;
5702;SDS011;2876;51.738;10.050;2023-09-08T06:45:33;7.33;;;6.60;;
5702;SDS011;2876;51.738;10.050;2023-09-08T06:51:35;7.23;;;6.30;;
5702;SDS011;2876;51.738;10.050;2023-09-08T06:57:38;7.10;;;6.40;;
5702;SDS011;2876;51.738;10.050;2023-09-08T07:03:40;7.60;;;6.60;;
5702;SDS011;2876;51.738;10.050;2023-09-08T07:09:42;6.20;;;5.60;;
5702;SDS011;2876;51.738;10.050;2023-09-08T07:15:44;8.37;;;6.27;;
5702;SDS011;2876;51.738;10.050;2023-09-08T07:21:46;9.27;;;6.30;;
5702;SDS011;2876;51.738;10.050;2023-09-08T07:27:48;7.10;;;6.40;;
5702;SDS011;2876;51.738;10.050;2023-09-08T07:33:53;13.30;;;6.90;;
5702;SDS011;2876;51.738;10.050;2023-09-08T07:39:55;10.47;;;7.03;;
5702;SDS011;2876;51.738;10.050;2023-09-08T07:45:58;10.70;;;6.80;;
5702;SDS011;2876;51.738;10.050;2023-09-08T07:52:00;7.03;;;6.33;;
5702;SDS011;2876;51.738;10.050;2023-09-08T07:58:02;8.30;;;6.30;;
5702;SDS011;2876;51.738;10.050;2023-09-08T08:04:05;13.00;;;5.97;;
5702;SDS011;2876;51.738;10.050;2023-09-08T08:10:07;7.50;;;5.90;;
5702;SDS011;2876;51.738;10.050;2023-09-08T08:16:10;6.50;;;5.70;;
5702;SDS011;2876;51.738;10.050;2023-09-08T08:22:12;6.23;;;5.63;;
5702;SDS011;2876;51.738;10.050;2023-09-08T08:28:14;9.20;;;5.63;;
5702;SDS011;2876;51.738;10.050;2023-09-08T08:34:16;8.43;;;5.00;;
5702;SDS011;2876;51.738;10.050;2023-09-08T08:40:18;7.57;;;5.00;;
5702;SDS011;2876;51.738;10.050;2023-09-08T08:46:21;6.07;;;5.47;;
5702;SDS011;2876;51.738;10.050;2023-09-08T08:52:27;7.20;;;5.50;;
5702;SDS011;2876;51.738;10.050;2023-09-08T08:58:30;7.10;;;5.00;;
5702;SDS011;2876;51.738;10.050;2023-09-08T09:04:32;7.33;;;5.03;;
5702;SDS011;2876;51.738;10.050;2023-09-08T09:10:35;7.83;;;5.03;;
5702;SDS011;2876;51.738;10.050;2023-09-08T09:16:41;6.53;;;4.60;;
5702;SDS011;2876;51.738;10.050;2023-09-08T09:22:44;6.37;;;4.67;;
5702;SDS011;2876;51.738;10.050;2023-09-08T09:28:47;12.67;;;4.87;;
5702;SDS011;2876;51.738;10.050;2023-09-08T09:34:53;7.63;;;4.80;;
5702;SDS011;2876;51.738;10.050;2023-09-08T09:40:56;5.00;;;4.23;;
5702;SDS011;2876;51.738;10.050;2023-09-08T09:47:00;9.23;;;4.50;;
5702;SDS011;2876;51.738;10.050;2023-09-08T09:53:12;5.00;;;4.50;;
5702;SDS011;2876;51.738;10.050;2023-09-08T09:59:16;6.83;;;4.83;;
5702;SDS011;2876;51.738;10.050;2023-09-08T10:05:18;5.07;;;4.07;;
5702;SDS011;2876;51.738;10.050;2023-09-08T10:11:21;4.90;;;4.47;;
5702;SDS011;2876;51.738;10.050;2023-09-08T10:17:24;5.70;;;4.23;;
5702;SDS011;2876;51.738;10.050;2023-09-08T10:23:36;6.23;;;4.10;;
5702;SDS011;2876;51.738;10.050;2023-09-08T10:29:43;4.93;;;4.53;;
5702;SDS011;2876;51.738;10.050;2023-09-08T10:35:46;6.50;;;3.60;;
5702;SDS011;2876;51.738;10.050;2023-09-08T10:41:48;11.37;;;3.97;;
5702;SDS011;2876;51.738;10.050;2023-09-08T10:53:53;10.80;;;3.90;;
5702;SDS011;2876;51.738;10.050;2023-09-08T11:00:00;4.03;;;3.70;;
5702;SDS011;2876;51.738;10.050;2023-09-08T11:06:17;8.30;;;4.40;;
5702;SDS011;2876;51.738;10.050;2023-09-08T11:12:20;8.10;;;3.93;;
5702;SDS011;2876;51.738;10.050;2023-09-08T11:18:28;4.47;;;3.53;;
5702;SDS011;2876;51.738;10.050;2023-09-08T11:24:31;10.53;;;4.47;;
5702;SDS011;2876;51.738;10.050;2023-09-08T11:30:33;6.53;;;3.80;;
5702;SDS011;2876;51.738;10.050;2023-09-08T11:36:35;8.43;;;4.07;;
5702;SDS011;2876;51.738;10.050;2023-09-08T11:42:38;4.00;;;3.40;;
5702;SDS011;2876;51.738;10.050;2023-09-08T11:48:45;3.97;;;3.57;;
5702;SDS011;2876;51.738;10.050;2023-09-08T11:54:48;5.47;;;3.90;;
5702;SDS011;2876;51.738;10.050;2023-09-08T12:01:07;4.07;;;3.60;;
5702;SDS011;2876;51.738;10.050;2023-09-08T12:07:12;12.00;;;3.57;;
5702;SDS011;2876;51.738;10.050;2023-09-08T12:13:21;4.80;;;3.70;;
5702;SDS011;2876;51.738;10.050;2023-09-08T12:19:28;3.83;;;3.43;;
5702;SDS011;2876;51.738;10.050;2023-09-08T12:25:32;5.83;;;3.63;;
5702;SDS011;2876;51.738;10.050;2023-09-08T12:31:38;5.10;;;3.30;;
5702;SDS011;2876;51.738;10.050;2023-09-08T12:37:40;3.50;;;3.20;;
5702;SDS011;2876;51.738;10.050;2023-09-08T12:43:42;5.23;;;3.93;;
5702;SDS011;2876;51.738;10.050;2023-09-08T12:49:45;5.27;;;3.67;;
5702;SDS011;2876;51.738;10.050;2023-09-08T12:55:47;4.03;;;3.53;;
5702;SDS011;2876;51.738;10.050;2023-09-08T13:01:50;3.63;;;3.33;;
5702;SDS011;2876;51.738;10.050;2023-09-08T13:07:52;3.40;;;3.10;;
5702;SDS011;2876;51.738;10.050;2023-09-08T13:13:54;7.60;;;3.03;;
5702;SDS011;2876;51.738;10.050;2023-09-08T13:19:56;3.30;;;2.57;;
5702;SDS011;2876;51.738;10.050;2023-09-08T13:25:57;3.50;;;3.20;;
5702;SDS011;2876;51.738;10.050;2023-09-08T13:31:59;3.87;;;3.13;;
5702;SDS011;2876;51.738;10.050;2023-09-08T13:38:02;4.60;;;2.83;;
5702;SDS011;2876;51.738;10.050;2023-09-08T13:44:04;4.40;;;4.00;;
5702;SDS011;2876;51.738;10.050;2023-09-08T13:50:06;4.17;;;3.30;;
5702;SDS011;2876;51.738;10.050;2023-09-08T13:56:11;4.27;;;2.77;;
5702;SDS011;2876;51.738;10.050;2023-09-08T14:02:15;3.77;;;2.90;;
5702;SDS011;2876;51.738;10.050;2023-09-08T14:08:37;6.73;;;3.20;;
5702;SDS011;2876;51.738;10.050;2023-09-08T14:14:59;3.23;;;2.93;;
5702;SDS011;2876;51.738;10.050;2023-09-08T14:21:01;6.03;;;3.30;;
5702;SDS011;2876;51.738;10.050;2023-09-08T14:27:03;3.60;;;2.90;;
5702;SDS011;2876;51.738;10.050;2023-09-08T14:33:06;3.67;;;2.93;;
5702;SDS011;2876;51.738;10.050;2023-09-08T14:39:08;5.00;;;2.50;;
5702;SDS011;2876;51.738;10.050;2023-09-08T14:45:10;7.60;;;3.43;;
5702;SDS011;2876;51.738;10.050;2023-09-08T14:51:13;7.33;;;3.53;;
5702;SDS011;2876;51.738;10.050;2023-09-08T14:57:16;3.43;;;3.00;;
5702;SDS011;2876;51.738;10.050;2023-09-08T15:03:18;3.50;;;2.80;;
5702;SDS011;2876;51.738;10.050;2023-09-08T15:09:20;3.80;;;3.40;;
5702;SDS011;2876;51.738;10.050;2023-09-08T15:15:22;5.90;;;3.20;;
5702;SDS011;2876;51.738;10.050;2023-09-08T15:21:27;4.77;;;3.30;;
5702;SDS011;2876;51.738;10.050;2023-09-08T15:27:31;4.63;;;3.03;;
5702;SDS011;2876;51.738;10.050;2023-09-08T15:33:33;3.83;;;3.20;;
5702;SDS011;2876;51.738;10.050;2023-09-08T15:39:35;3.80;;;2.90;;
5702;SDS011;2876;51.738;10.050;2023-09-08T15:45:37;7.83;;;3.67;;
5702;SDS011;2876;51.738;10.050;2023-09-08T15:51:40;10.23;;;3.43;;
5702;SDS011;2876;51.738;10.050;2023-09-08T15:57:42;4.80;;;4.10;;
5702;SDS011;2876;51.738;10.050;2023-09-08T16:03:44;12.73;;;3.50;;
5702;SDS011;2876;51.738;10.050;2023-09-08T16:09:46;5.17;;;3.60;;
5702;SDS011;2876;51.738;10.050;2023-09-08T16:15:48;4.53;;;3.73;;
5702;SDS011;2876;51.738;10.050;2023-09-08T16:21:50;4.87;;;3.77;;
5702;SDS011;2876;51.738;10.050;2023-09-08T16:27:52;3.63;;;3.10;;
5702;SDS011;2876;51.738;10.050;2023-09-08T16:33:54;5.70;;;3.57;;
5702;SDS011;2876;51.738;10.050;2023-09-08T16:39:56;4.20;;;3.80;;
5702;SDS011;2876;51.738;10.050;2023-09-08T16:45:58;4.03;;;3.30;;
5702;SDS011;2876;51.738;10.050;2023-09-08T16:52:00;6.10;;;3.53;;
5702;SDS011;2876;51.738;10.050;2023-09-08T16:58:02;6.83;;;3.30;;
5702;SDS011;2876;51.738;10.050;2023-09-08T17:04:04;5.50;;;3.60;;
5702;SDS011;2876;51.738;10.050;2023-09-08T17:10:11;5.67;;;3.60;;
5702;SDS011;2876;51.738;10.050;2023-09-08T17:16:13;5.47;;;3.83;;
5702;SDS011;2876;51.738;10.050;2023-09-08T17:22:15;12.23;;;3.60;;
5702;SDS011;2876;51.738;10.050;2023-09-08T17:28:17;13.50;;;3.33;;
5702;SDS011;2876;51.738;10.050;2023-09-08T17:34:20;7.37;;;4.80;;
5702;SDS011;2876;51.738;10.050;2023-09-08T17:40:22;3.83;;;3.13;;
5702;SDS011;2876;51.738;10.050;2023-09-08T17:46:24;6.13;;;4.07;;
5702;SDS011;2876;51.738;10.050;2023-09-08T17:52:27;10.73;;;4.40;;
5702;SDS011;2876;51.738;10.050;2023-09-08T17:58:29;13.53;;;4.60;;
5702;SDS011;2876;51.738;10.050;2023-09-08T18:04:33;6.83;;;4.33;;
5702;SDS011;2876;51.738;10.050;2023-09-08T18:10:35;4.43;;;3.87;;
5702;SDS011;2876;51.738;10.050;2023-09-08T18:16:37;8.07;;;4.40;;
5702;SDS011;2876;51.738;10.050;2023-09-08T18:22:44;5.47;;;4.37;;
5702;SDS011;2876;51.738;10.050;2023-09-08T18:28:46;5.60;;;5.00;;
5702;SDS011;2876;51.738;10.050;2023-09-08T18:34:48;5.47;;;4.40;;
5702;SDS011;2876;51.738;10.050;2023-09-08T18:40:53;7.23;;;4.57;;
5702;SDS011;2876;51.738;10.050;2023-09-08T18:46:55;6.70;;;4.20;;
5702;SDS011;2876;51.738;10.050;2023-09-08T18:52:57;5.30;;;3.80;;
5702;SDS011;2876;51.738;10.050;2023-09-08T18:58:59;5.37;;;4.27;;
5702;SDS011;2876;51.738;10.050;2023-09-08T19:05:02;6.60;;;4.63;;
5702;SDS011;2876;51.738;10.050;2023-09-08T19:11:05;8.87;;;5.17;;
5702;SDS011;2876;51.738;10.050;2023-09-08T19:17:08;6.57;;;4.53;;
5702;SDS011;2876;51.738;10.050;2023-09-08T19:23:10;10.30;;;4.53;;
5702;SDS011;2876;51.738;10.050;2023-09-08T19:29:12;12.93;;;4.50;;
5702;SDS011;2876;51.738;10.050;2023-09-08T19:35:14;8.83;;;5.00;;
5702;SDS011;2876;51.738;10.050;2023-09-08T19:41:16;8.23;;;4.63;;
5702;SDS011;2876;51.738;10.050;2023-09-08T19:47:19;9.03;;;4.47;;
5702;SDS011;2876;51.738;10.050;2023-09-08T19:53:21;7.17;;;5.00;;
5702;SDS011;2876;51.738;10.050;2023-09-08T19:59:23;5.10;;;4.60;;
5702;SDS011;2876;51.738;10.050;2023-09-08T20:05:25;7.23;;;4.13;;
5702;SDS011;2876;51.738;10.050;2023-09-08T20:11:27;7.83;;;5.30;;
5702;SDS011;2876;51.738;10.050;2023-09-08T20:17:30;17.63;;;5.43;;
5702;SDS011;2876;51.738;10.050;2023-09-08T20:23:33;14.70;;;6.10;;
5702;SDS011;2876;51.738;10.050;2023-09-08T20:29:36;10.60;;;6.20;;
5702;SDS011;2876;51.738;10.050;2023-09-08T20:35:38;6.50;;;5.03;;
5702;SDS011;2876;51.738;10.050;2023-09-08T20:41:41;8.07;;;5.40;;
5702;SDS011;2876;51.738;10.050;2023-09-08T20:47:43;21.30;;;5.93;;
5702;SDS011;2876;51.738;10.050;2023-09-08T20:53:45;11.70;;;5.07;;
5702;SDS011;2876;51.738;10.050;2023-09-08T20:59:47;10.53;;;5.60;;
5702;SDS011;2876;51.738;10.050;2023-09-08T21:05:49;11.50;;;7.33;;
5702;SDS011;2876;51.738;10.050;2023-09-08T21:11:52;6.57;;;5.40;;
5702;SDS011;2876;51.738;10.050;2023-09-08T21:17:54;5.53;;;4.40;;
5702;SDS011;2876;51.738;10.050;2023-09-08T21:23:56;7.30;;;5.07;;
5702;SDS011;2876;51.738;10.050;2023-09-08T21:29:58;6.83;;;5.67;;
5702;SDS011;2876;51.738;10.050;2023-09-08T21:36:00;11.53;;;5.40;;
5702;SDS011;2876;51.738;10.050;2023-09-08T21:42:02;8.60;;;5.97;;
5702;SDS011;2876;51.738;10.050;2023-09-08T21:48:04;8.10;;;5.47;;
5702;SDS011;2876;51.738;10.050;2023-09-08T21:54:06;11.73;;;5.77;;
5702;SDS011;2876;51.738;10.050;2023-09-08T22:00:08;10.40;;;6.20;;
5702;SDS011;2876;51.738;10.050;2023-09-08T22:06:16;8.30;;;5.67;;
5702;SDS011;2876;51.738;10.050;2023-09-08T22:12:18;6.70;;;5.50;;
5702;SDS011;2876;51.738;10.050;2023-09-08T22:18:20;6.13;;;5.10;;
5702;SDS011;2876;51.738;10.050;2023-09-08T22:24:22;6.03;;;5.43;;
5702;SDS011;2876;51.738;10.050;2023-09-08T22:30:24;6.17;;;5.20;;
5702;SDS011;2876;51.738;10.050;2023-09-08T22:36:26;6.37;;;5.10;;
5702;SDS011;2876;51.738;10.050;2023-09-08T22:42:28;6.67;;;5.60;;
5702;SDS011;2876;51.738;10.050;2023-09-08T22:48:30;6.37;;;5.73;;
5702;SDS011;2876;51.738;10.050;2023-09-08T22:54:33;14.30;;;6.20;;
5702;SDS011;2876;51.738;10.050;2023-09-08T23:00:35;6.93;;;5.53;;
5702;SDS011;2876;51.738;10.050;2023-09-08T23:06:37;8.20;;;5.77;;
5702;SDS011;2876;51.738;10.050;2023-09-08T23:12:39;7.60;;;5.73;;
5702;SDS011;2876;51.738;10.050;2023-09-08T23:18:41;5.30;;;4.80;;
5702;SDS011;2876;51.738;10.050;2023-09-08T23:24:43;6.20;;;5.50;;
5702;SDS011;2876;51.738;10.050;2023-09-08T23:30:45;9.80;;;5.97;;
5702;SDS011;2876;51.738;10.050;2023-09-08T23:36:48;10.30;;;5.67;;
5702;SDS011;2876;51.738;10.050;2023-09-08T23:42:50;6.83;;;5.80;;
5702;SDS011;2876;51.738;10.050;2023-09-08T23:48:51;7.63;;;6.80;;
5702;SDS011;2876;51.738;10.050;2023-09-08T23:54:56;9.30;;;6.10;;
